createdAt,value
2019-01-19T00:02:37.359Z,14.37
2019-01-19T00:05:10.674Z,13.90
2019-01-19T00:07:50.967Z,15.20
2019-01-19T00:10:28.014Z,14.37
2019-01-19T00:13:16.921Z,14.87
2019-01-19T00:16:04.683Z,13.97
2019-01-19T00:18:41.918Z,14.20
2019-01-19T00:21:28.535Z,14.30
2019-01-19T00:24:00.063Z,13.73
2019-01-19T00:26:40.264Z,15.00
2019-01-19T00:29:29.390Z,14.97
2019-01-19T00:32:03.835Z,14.90
2019-01-19T00:34:43.879Z,13.93
2019-01-19T00:37:15.402Z,14.93
2019-01-19T00:40:07.567Z,14.40
2019-01-19T00:42:39.078Z,14.33
2019-01-19T00:45:30.156Z,14.07
2019-01-19T00:48:07.676Z,13.60
2019-01-19T00:50:45.187Z,13.60
2019-01-19T00:53:22.492Z,13.77
2019-01-19T00:55:57.102Z,15.17
2019-01-19T00:58:28.612Z,14.03
2019-01-19T01:01:00.192Z,14.37
2019-01-19T01:03:31.770Z,14.77
2019-01-19T01:06:06.357Z,13.73
2019-01-19T01:09:07.697Z,13.90
2019-01-19T01:11:39.228Z,14.03
2019-01-19T01:14:25.373Z,14.70
2019-01-19T01:16:56.873Z,13.10
2019-01-19T01:19:52.412Z,13.80
2019-01-19T01:22:32.104Z,13.57
2019-01-19T01:25:09.295Z,13.07
2019-01-19T01:27:52.785Z,13.77
2019-01-19T01:30:35.895Z,13.80
2019-01-19T01:33:25.433Z,14.13
2019-01-19T01:36:16.156Z,13.40
2019-01-19T01:38:59.587Z,13.53
2019-01-19T01:41:46.048Z,12.93
2019-01-19T01:44:29.792Z,12.77
2019-01-19T01:47:07.222Z,13.20
2019-01-19T01:49:44.572Z,13.50
2019-01-19T01:52:30.943Z,12.90
2019-01-19T01:55:02.484Z,13.60
2019-01-19T01:57:32.455Z,13.70
2019-01-19T02:00:06.842Z,13.27
2019-01-19T02:02:54.697Z,13.57
2019-01-19T02:05:43.343Z,13.30
2019-01-19T02:08:17.868Z,13.33
2019-01-19T02:11:04.268Z,12.67
2019-01-19T02:13:56.499Z,12.90
2019-01-19T02:16:45.994Z,12.90
2019-01-19T02:19:17.529Z,13.17
2019-01-19T02:22:10.855Z,12.73
2019-01-19T02:24:42.360Z,11.73
2019-01-19T02:27:28.550Z,12.67
2019-01-19T02:30:09.011Z,12.27
2019-01-19T02:32:55.239Z,13.10
2019-01-19T02:35:35.524Z,12.53
2019-01-19T02:38:22.011Z,12.47
2019-01-19T02:40:59.035Z,11.87
2019-01-19T02:43:39.331Z,12.40
2019-01-19T02:46:19.459Z,11.33
2019-01-19T02:49:09.007Z,11.37
2019-01-19T02:51:55.401Z,11.63
2019-01-19T02:54:38.507Z,11.07
2019-01-19T02:57:12.625Z,11.03
2019-01-19T02:59:52.740Z,11.03
2019-01-19T03:02:26.938Z,10.53
2019-01-19T03:05:01.051Z,9.63
2019-01-19T03:07:44.323Z,9.77
2019-01-19T03:10:15.817Z,11.20
2019-01-19T03:12:49.994Z,9.83
2019-01-19T03:15:33.139Z,11.10
2019-01-19T03:18:29.791Z,10.73
2019-01-19T03:21:19.000Z,10.30
2019-01-19T03:24:22.968Z,10.20
2019-01-19T03:26:57.074Z,10.50
2019-01-19T03:29:37.452Z,9.83
2019-01-19T03:32:17.579Z,10.23
2019-01-19T03:35:05.344Z,10.00
2019-01-19T03:37:39.568Z,10.07
2019-01-19T03:40:37.918Z,10.37
2019-01-19T03:43:28.670Z,11.07
2019-01-19T03:46:32.885Z,10.83
2019-01-19T03:49:07.079Z,10.13
2019-01-19T03:51:44.495Z,9.53
2019-01-19T03:54:18.600Z,9.50
2019-01-19T03:56:53.095Z,9.70
2019-01-19T03:59:36.482Z,10.10
2019-01-19T04:02:22.948Z,9.57
2019-01-19T04:05:00.305Z,9.17
2019-01-19T04:07:43.731Z,9.07
2019-01-19T04:10:29.425Z,9.63
2019-01-19T04:13:09.595Z,10.53
2019-01-19T04:15:52.713Z,9.40
2019-01-19T04:18:24.459Z,9.33
2019-01-19T04:21:01.927Z,9.03
2019-01-19T04:23:30.792Z,9.30
2019-01-19T04:26:01.292Z,9.13
2019-01-19T04:28:29.981Z,8.87
2019-01-19T04:30:58.416Z,9.37
2019-01-19T04:33:26.844Z,9.37
2019-01-19T04:35:55.290Z,9.20
2019-01-19T04:38:23.716Z,8.70
2019-01-19T04:40:52.245Z,8.43
2019-01-19T04:43:20.678Z,9.40
2019-01-19T04:45:49.169Z,8.63
2019-01-19T04:48:19.336Z,7.83
2019-01-19T04:50:47.765Z,9.13
2019-01-19T04:53:16.216Z,9.13
2019-01-19T04:55:44.718Z,9.30
2019-01-19T04:58:13.241Z,8.57
2019-01-19T05:00:41.665Z,8.50
2019-01-19T05:03:10.178Z,8.60
2019-01-19T05:05:38.605Z,9.50
2019-01-19T05:08:07.051Z,8.90
2019-01-19T05:10:35.944Z,8.70
2019-01-19T05:13:04.549Z,8.17
2019-01-19T05:15:32.985Z,8.57
2019-01-19T05:18:01.620Z,9.13
2019-01-19T05:20:30.183Z,8.93
2019-01-19T05:22:58.635Z,9.57
2019-01-19T05:25:27.091Z,8.30
2019-01-19T05:27:55.526Z,8.37
2019-01-19T05:30:24.054Z,8.97
2019-01-19T05:32:52.550Z,8.10
2019-01-19T05:35:21.193Z,8.20
2019-01-19T05:37:49.712Z,7.90
2019-01-19T05:40:18.148Z,7.57
2019-01-19T05:42:46.592Z,7.83
2019-01-19T05:45:15.275Z,7.27
2019-01-19T05:47:43.843Z,7.40
2019-01-19T05:50:20.170Z,8.13
2019-01-19T05:52:48.677Z,7.93
2019-01-19T05:55:17.134Z,7.30
2019-01-19T05:57:45.563Z,7.33
2019-01-19T06:00:24.150Z,7.30
2019-01-19T06:02:52.581Z,7.40
2019-01-19T06:05:21.041Z,7.40
2019-01-19T06:07:49.532Z,7.00
2019-01-19T06:10:18.255Z,7.00
2019-01-19T06:12:46.760Z,7.40
2019-01-19T06:15:16.142Z,7.37
2019-01-19T06:17:44.675Z,7.37
2019-01-19T06:20:16.895Z,6.90
2019-01-19T06:22:45.484Z,7.00
2019-01-19T06:25:15.252Z,6.83
2019-01-19T06:27:43.711Z,7.03
2019-01-19T06:30:17.854Z,6.50
2019-01-19T06:32:46.408Z,6.73
2019-01-19T06:35:14.859Z,6.87
2019-01-19T06:37:43.356Z,7.20
2019-01-19T06:40:14.027Z,6.30
2019-01-19T06:42:42.576Z,7.57
2019-01-19T06:45:13.715Z,7.37
2019-01-19T06:47:42.163Z,7.33
2019-01-19T06:50:13.503Z,7.00
2019-01-19T06:52:42.031Z,6.97
2019-01-19T06:55:12.879Z,6.67
2019-01-19T06:57:41.404Z,7.17
2019-01-19T07:00:14.857Z,6.83
2019-01-19T07:02:43.449Z,6.63
2019-01-19T07:05:12.207Z,6.73
2019-01-19T07:07:40.725Z,6.93
2019-01-19T07:10:17.947Z,6.60
2019-01-19T07:12:46.475Z,6.60
2019-01-19T07:15:15.142Z,6.80
2019-01-19T07:17:43.668Z,6.10
2019-01-19T07:20:18.135Z,6.03
2019-01-19T07:22:46.667Z,6.77
2019-01-19T07:25:15.252Z,5.67
2019-01-19T07:27:43.743Z,6.07
2019-01-19T07:30:14.343Z,6.10
2019-01-19T07:32:42.898Z,5.90
2019-01-19T07:35:11.687Z,5.83
2019-01-19T07:37:40.140Z,6.70
2019-01-19T07:40:11.516Z,6.43
2019-01-19T07:42:41.468Z,6.40
2019-01-19T07:45:12.161Z,5.60
2019-01-19T07:47:41.324Z,6.37
2019-01-19T07:50:12.519Z,5.90
2019-01-19T07:52:41.079Z,5.60
2019-01-19T07:55:11.892Z,5.77
2019-01-19T07:57:39.978Z,5.63
2019-01-19T08:00:14.455Z,5.60
2019-01-19T08:02:42.944Z,5.60
2019-01-19T08:05:11.226Z,5.43
2019-01-19T08:07:39.652Z,5.70
2019-01-19T08:10:09.299Z,6.80
2019-01-19T08:12:37.816Z,4.90
2019-01-19T08:15:12.264Z,5.37
2019-01-19T08:17:40.860Z,5.50
2019-01-19T08:20:12.213Z,5.20
2019-01-19T08:22:40.389Z,5.60
2019-01-19T08:25:10.691Z,4.67
2019-01-19T08:27:38.871Z,5.13
2019-01-19T08:30:08.536Z,5.03
2019-01-19T08:32:36.959Z,5.00
2019-01-19T08:35:08.284Z,4.70
2019-01-19T08:37:36.543Z,4.67
2019-01-19T08:40:10.783Z,4.90
2019-01-19T08:42:39.174Z,5.40
2019-01-19T08:45:10.317Z,7.73
2019-01-19T08:47:38.771Z,4.63
2019-01-19T08:50:09.972Z,5.40
2019-01-19T08:52:38.518Z,4.77
2019-01-19T08:55:08.692Z,4.63
2019-01-19T08:57:37.145Z,4.67
2019-01-19T09:00:08.727Z,4.80
2019-01-19T09:02:36.859Z,4.43
2019-01-19T09:05:12.835Z,4.60
2019-01-19T09:07:41.336Z,4.30
2019-01-19T09:10:12.942Z,4.87
2019-01-19T09:12:41.162Z,4.53
2019-01-19T09:15:12.663Z,4.50
2019-01-19T09:17:40.888Z,4.67
2019-01-19T09:20:10.662Z,4.63
2019-01-19T09:22:38.777Z,4.13
2019-01-19T09:25:10.435Z,4.70
2019-01-19T09:27:39.021Z,5.87
2019-01-19T09:30:10.522Z,4.80
2019-01-19T09:32:39.100Z,4.83
2019-01-19T09:35:09.814Z,4.53
2019-01-19T09:37:40.907Z,5.00
2019-01-19T09:40:14.073Z,4.87
2019-01-19T09:42:42.578Z,5.03
2019-01-19T09:45:13.809Z,5.40
2019-01-19T09:47:42.019Z,5.40
2019-01-19T09:50:18.635Z,8.90
2019-01-19T09:52:47.142Z,5.33
2019-01-19T09:55:15.564Z,5.80
2019-01-19T09:57:44.150Z,8.10
2019-01-19T10:00:18.048Z,5.20
2019-01-19T10:02:46.530Z,5.70
2019-01-19T10:05:17.724Z,5.03
2019-01-19T10:07:48.742Z,4.80
2019-01-19T10:10:16.477Z,4.70
2019-01-19T10:12:45.020Z,4.70
2019-01-19T10:15:15.638Z,4.23
2019-01-19T10:17:44.146Z,4.80
2019-01-19T10:20:16.556Z,4.50
2019-01-19T10:22:45.076Z,4.33
2019-01-19T10:25:15.346Z,4.53
2019-01-19T10:27:44.142Z,4.33
2019-01-19T10:30:17.776Z,4.63
2019-01-19T10:32:46.423Z,4.77
2019-01-19T10:35:15.024Z,4.50
2019-01-19T10:37:43.515Z,5.00
2019-01-19T10:40:13.022Z,4.50
2019-01-19T10:42:41.438Z,4.30
2019-01-19T10:45:12.896Z,6.43
2019-01-19T10:47:41.079Z,6.30
2019-01-19T10:50:10.975Z,5.90
2019-01-19T10:52:39.091Z,6.20
2019-01-19T10:55:09.364Z,5.60
2019-01-19T10:57:37.890Z,5.10
2019-01-19T11:00:10.458Z,5.23
2019-01-19T11:02:38.664Z,5.20
2019-01-19T11:05:11.016Z,5.17
2019-01-19T11:07:40.139Z,5.03
2019-01-19T11:10:11.656Z,4.70
2019-01-19T11:12:40.149Z,5.13
2019-01-19T11:15:11.838Z,6.70
2019-01-19T11:17:40.036Z,5.37
2019-01-19T11:20:14.471Z,4.50
2019-01-19T11:22:42.908Z,4.50
2019-01-19T11:25:12.277Z,4.77
2019-01-19T11:27:40.847Z,4.80
2019-01-19T11:30:17.903Z,4.23
2019-01-19T11:32:46.086Z,4.87
2019-01-19T11:35:14.971Z,4.50
2019-01-19T11:37:43.183Z,4.17
2019-01-19T11:40:17.024Z,4.90
2019-01-19T11:42:45.214Z,4.60
2019-01-19T11:45:14.708Z,4.40
2019-01-19T11:47:43.302Z,4.27
2019-01-19T11:50:12.487Z,3.73
2019-01-19T11:52:40.939Z,4.53
2019-01-19T11:55:13.125Z,4.23
2019-01-19T11:57:41.562Z,3.80
2019-01-19T12:00:14.389Z,4.70
2019-01-19T12:02:42.572Z,4.57
2019-01-19T12:05:11.169Z,3.80
2019-01-19T12:07:39.624Z,3.80
2019-01-19T12:10:11.147Z,3.90
2019-01-19T12:12:39.635Z,6.10
2019-01-19T12:15:09.428Z,5.60
2019-01-19T12:17:37.509Z,3.97
2019-01-19T12:20:07.174Z,4.33
2019-01-19T12:22:35.607Z,3.60
2019-01-19T12:25:05.792Z,3.60
2019-01-19T12:27:34.236Z,3.57
2019-01-19T12:30:02.370Z,3.77
2019-01-19T12:32:30.807Z,3.50
2019-01-19T12:34:59.339Z,3.37
2019-01-19T12:37:27.779Z,3.40
2019-01-19T12:39:55.933Z,3.30
2019-01-19T12:42:24.362Z,3.37
